Time;durP1;ratioP1;P1;durP2;ratioP2;P2;SDS_P1;SDS_P2;PMS_P1;PMS_P2;Temp;Humidity;BMP_temperature;BMP_pressure;BME280_temperature;BME280_humidity;BME280_pressure;Samples;Min_cycle;Max_cycle;Signal;HPM_P1;HPM_P2
2023/12/16 00:02:24;;;;;;;;;3.00;3.00;;;;;7.85;85.22;102083.81;5098492;28;9495;-57
2023/12/16 00:04:52;;;;;;;;;2.00;2.00;;;;;7.86;85.53;102080.25;5097458;28;8830;-56
2023/12/16 00:07:19;;;;;;;;;3.00;3.00;;;;;7.86;85.16;102082.91;5098424;28;8834;-55
2023/12/16 00:09:48;;;;;;;;;3.25;3.25;;;;;7.87;85.29;102084.63;5097587;28;8960;-57
2023/12/16 00:12:16;;;;;;;;;5.00;3.50;;;;;7.86;84.98;102077.59;5098080;28;8869;-55
2023/12/16 00:14:44;;;;;;;;;4.00;4.00;;;;;7.84;85.30;102082.94;5097806;28;8894;-57
2023/12/16 00:17:12;;;;;;;;;2.00;2.00;;;;;7.83;85.28;102088.31;5098037;28;8806;-55
2023/12/16 00:19:40;;;;;;;;;1.50;1.00;;;;;7.82;85.40;102083.91;5097922;28;8814;-58
2023/12/16 00:22:08;;;;;;;;;1.00;1.00;;;;;7.83;85.02;102089.16;5097974;28;8830;-55
2023/12/16 00:24:36;;;;;;;;;3.00;3.00;;;;;7.82;85.25;102087.44;5097967;28;9587;-58
2023/12/16 00:27:04;;;;;;;;;2.50;2.50;;;;;7.82;85.03;102094.50;5096830;28;8818;-56
2023/12/16 00:29:32;;;;;;;;;5.50;3.50;;;;;7.81;85.37;102083.06;5096841;28;8848;-56
2023/12/16 00:32:01;;;;;;;;;0.75;0.00;;;;;7.80;85.13;102076.03;5097539;28;8822;-56
2023/12/16 00:34:29;;;;;;;;;5.50;4.00;;;;;7.80;85.14;102064.53;5097431;28;8825;-56
2023/12/16 00:36:58;;;;;;;;;5.50;4.50;;;;;7.80;85.38;102064.53;5097179;28;8826;-56
2023/12/16 00:39:26;;;;;;;;;3.00;3.00;;;;;7.78;85.15;102069.91;5097280;28;8814;-56
2023/12/16 00:41:54;;;;;;;;;4.00;3.50;;;;;7.77;84.94;102054.88;5098029;28;8845;-57
2023/12/16 00:44:22;;;;;;;;;3.50;3.50;;;;;7.77;84.80;102054.88;5097522;28;9086;-58
2023/12/16 00:46:49;;;;;;;;;2.00;1.00;;;;;7.78;84.88;102058.44;5097729;28;8952;-58
2023/12/16 00:49:17;;;;;;;;;5.50;4.00;;;;;7.78;84.94;102055.78;5097608;28;8826;-56
2023/12/16 00:51:45;;;;;;;;;3.75;3.75;;;;;7.78;85.15;102064.59;5096688;28;8821;-57
2023/12/16 00:54:13;;;;;;;;;3.75;3.75;;;;;7.78;84.75;102069.91;5097354;28;8817;-56
2023/12/16 00:56:41;;;;;;;;;3.50;3.00;;;;;7.79;84.61;102073.41;5097194;28;8956;-57
2023/12/16 00:59:08;;;;;;;;;3.75;3.50;;;;;7.80;84.51;102069.84;5096286;28;8848;-58
2023/12/16 01:01:36;;;;;;;;;3.00;1.00;;;;;7.80;84.83;102070.72;5097520;28;8822;-57
2023/12/16 01:04:04;;;;;;;;;5.00;4.00;;;;;7.80;84.49;102081.31;5097392;28;8818;-56
2023/12/16 01:06:32;;;;;;;;;0.25;0.00;;;;;7.80;84.74;102076.03;5097282;28;8830;-56
2023/12/16 01:08:59;;;;;;;;;3.00;2.50;;;;;7.81;84.78;102077.75;5097100;28;8806;-55
2023/12/16 01:11:27;;;;;;;;;7.25;6.25;;;;;7.81;84.36;102075.09;5097425;28;8826;-58
2023/12/16 01:13:55;;;;;;;;;4.50;3.00;;;;;7.80;84.62;102081.31;5097301;28;8944;-55
2023/12/16 01:16:23;;;;;;;;;4.00;4.00;;;;;7.81;84.70;102084.81;5096053;28;8834;-56
2023/12/16 01:18:51;;;;;;;;;3.00;1.00;;;;;7.80;84.82;102089.28;5097086;28;8939;-58
2023/12/16 01:21:19;;;;;;;;;6.00;6.00;;;;;7.79;84.61;102084.91;5097155;28;8818;-56
2023/12/16 01:23:47;;;;;;;;;3.50;3.50;;;;;7.79;84.50;102095.50;5097105;28;8798;-56
2023/12/16 01:26:15;;;;;;;;;4.00;4.00;;;;;7.79;84.73;102100.81;5096764;28;8895;-56
2023/12/16 01:28:43;;;;;;;;;6.00;6.00;;;;;7.79;84.62;102100.81;5096136;28;8830;-57
2023/12/16 01:31:11;;;;;;;;;3.00;1.00;;;;;7.79;84.45;102100.81;5096610;28;8814;-57
2023/12/16 01:33:39;;;;;;;;;7.00;6.00;;;;;7.79;84.23;102107.88;5096992;28;8830;-56
2023/12/16 01:36:06;;;;;;;;;2.00;1.00;;;;;7.78;84.60;102104.38;5096589;28;8814;-57
2023/12/16 01:38:36;;;;;;;;;3.75;3.75;;;;;7.78;84.73;102093.78;5096665;28;8822;-57
2023/12/16 01:41:04;;;;;;;;;3.75;3.75;;;;;7.78;84.60;102107.03;5096649;28;8858;-55
2023/12/16 01:43:32;;;;;;;;;7.00;6.00;;;;;7.76;84.66;102089.44;5096281;28;8857;-58
2023/12/16 01:45:59;;;;;;;;;4.00;3.75;;;;;7.74;84.67;102097.44;5096420;28;8837;-55
2023/12/16 01:48:27;;;;;;;;;0.50;0.50;;;;;7.73;84.69;102101.00;5096467;28;8836;-57
2023/12/16 01:50:55;;;;;;;;;3.00;3.00;;;;;7.72;84.54;102101.94;5096163;28;8830;-56
2023/12/16 01:53:23;;;;;;;;;4.00;3.75;;;;;7.72;84.39;102101.94;5096592;28;8864;-58
2023/12/16 01:55:50;;;;;;;;;4.50;4.50;;;;;7.72;84.66;102114.31;5096221;28;8838;-57
2023/12/16 01:58:18;;;;;;;;;6.00;4.00;;;;;7.71;84.80;102107.28;5095249;28;8853;-58
2023/12/16 02:00:46;;;;;;;;;7.00;6.25;;;;;7.73;85.04;102113.38;5095282;28;8818;-58
2023/12/16 02:03:15;;;;;;;;;4.00;3.75;;;;;7.72;84.86;102112.53;5096139;28;8952;-58
2023/12/16 02:05:43;;;;;;;;;9.50;7.00;;;;;7.72;84.50;102109.88;5096226;28;8813;-56
2023/12/16 02:08:11;;;;;;;;;0.50;0.50;;;;;7.72;84.99;102111.66;5096200;28;8809;-58
2023/12/16 02:10:38;;;;;;;;;3.50;3.25;;;;;7.72;84.49;102103.72;5096035;28;8836;-55
2023/12/16 02:13:06;;;;;;;;;7.00;4.00;;;;;7.73;84.85;102103.66;5095982;28;8915;-55
2023/12/16 02:15:34;;;;;;;;;4.00;4.00;;;;;7.73;84.29;102108.97;5095914;28;8937;-56
2023/12/16 02:18:02;;;;;;;;;3.00;3.00;;;;;7.73;84.56;102116.91;5095801;28;8818;-57
2023/12/16 02:20:30;;;;;;;;;6.75;6.25;;;;;7.72;84.58;102107.25;5095754;28;8818;-58
2023/12/16 02:22:58;;;;;;;;;4.00;3.50;;;;;7.73;84.33;102106.31;5095831;28;8834;-57
2023/12/16 02:25:26;;;;;;;;;5.50;5.50;;;;;7.73;84.39;102106.31;5095801;28;8946;-56
2023/12/16 02:27:54;;;;;;;;;4.00;4.00;;;;;7.74;84.50;102101.84;5095703;28;8810;-56
2023/12/16 02:30:24;;;;;;;;;4.00;4.00;;;;;7.73;84.79;102111.63;5095973;28;8822;-56
2023/12/16 02:32:55;;;;;;;;;6.00;6.00;;;;;7.72;84.64;102112.53;5095901;28;8814;-56
2023/12/16 02:35:23;;;;;;;;;4.00;4.00;;;;;7.71;84.92;102107.28;5096188;28;8928;-58
2023/12/16 02:37:51;;;;;;;;;6.50;5.50;;;;;7.72;84.28;102104.59;5093909;28;8836;-57
2023/12/16 02:40:19;;;;;;;;;4.50;4.00;;;;;7.72;84.67;102102.84;5095899;28;8944;-57
2023/12/16 02:42:47;;;;;;;;;1.50;1.00;;;;;7.72;84.32;102105.50;5095848;28;9609;-56
2023/12/16 02:45:14;;;;;;;;;6.75;5.50;;;;;7.72;84.09;102102.84;5095929;28;8945;-56
2023/12/16 02:47:42;;;;;;;;;6.00;4.00;;;;;7.72;84.47;102104.59;5095838;28;8818;-55
2023/12/16 02:50:10;;;;;;;;;4.50;3.75;;;;;7.72;83.72;102100.22;5095942;28;8833;-57
2023/12/16 02:52:38;;;;;;;;;7.00;7.00;;;;;7.72;84.17;102099.28;5096027;28;8948;-57
2023/12/16 02:55:06;;;;;;;;;4.75;3.75;;;;;7.71;84.37;102091.38;5095641;28;9495;-57
2023/12/16 02:57:33;;;;;;;;;2.50;1.00;;;;;7.71;84.30;102083.41;5094818;28;8814;-56
2023/12/16 03:00:02;;;;;;;;;3.75;3.75;;;;;7.70;84.02;102082.53;5096095;28;9534;-56
2023/12/16 03:02:30;;;;;;;;;3.75;3.75;;;;;7.68;84.35;102079.06;5095733;28;8834;-58
2023/12/16 03:04:58;;;;;;;;;3.50;3.00;;;;;7.67;83.82;102073.84;5095708;28;8818;-56
2023/12/16 03:07:26;;;;;;;;;3.75;3.75;;;;;7.66;84.26;102077.38;5095710;28;8817;-56
2023/12/16 03:09:54;;;;;;;;;4.25;4.25;;;;;7.66;83.71;102072.09;5095881;28;8940;-55
2023/12/16 03:12:21;;;;;;;;;4.00;3.75;;;;;7.67;84.22;102075.63;5095525;28;8849;-55
2023/12/16 03:14:49;;;;;;;;;3.25;3.25;;;;;7.66;84.07;102071.25;5095838;28;8846;-58
2023/12/16 03:17:18;;;;;;;;;2.00;2.00;;;;;7.65;83.75;102082.75;5098845;28;8812;-57
2023/12/16 03:19:45;;;;;;;;;3.25;3.25;;;;;7.66;84.02;102093.28;5095658;28;8821;-56
2023/12/16 03:22:13;;;;;;;;;7.50;7.00;;;;;7.67;84.20;102094.19;5095386;28;8814;-55
2023/12/16 03:24:41;;;;;;;;;4.00;4.00;;;;;7.67;83.74;102095.06;5094810;28;8834;-57
2023/12/16 03:27:08;;;;;;;;;3.00;3.00;;;;;7.68;84.03;102097.63;5095388;28;8818;-55
2023/12/16 03:29:38;;;;;;;;;4.00;4.00;;;;;7.68;84.21;102097.63;5100792;28;8833;-57
2023/12/16 03:32:05;;;;;;;;;3.00;3.00;;;;;7.68;84.11;102097.63;5101104;28;8919;-58
2023/12/16 03:34:33;;;;;;;;;5.00;5.00;;;;;7.69;84.10;102093.22;5095085;28;8856;-58
2023/12/16 03:37:01;;;;;;;;;5.50;3.50;;;;;7.68;83.74;102097.63;5095384;28;8830;-58
2023/12/16 03:39:28;;;;;;;;;1.50;1.50;;;;;7.69;84.03;102096.72;5096629;28;8818;-56
2023/12/16 03:41:57;;;;;;;;;1.00;1.00;;;;;7.69;83.62;102094.06;5099348;28;8873;-55
2023/12/16 03:44:24;;;;;;;;;4.00;4.00;;;;;7.69;84.04;102093.22;5098916;28;8826;-56
2023/12/16 03:46:52;;;;;;;;;3.75;3.25;;;;;7.69;83.73;102095.88;5099284;28;9563;-56
2023/12/16 03:49:20;;;;;;;;;3.00;3.00;;;;;7.68;83.92;102080.88;5098819;28;8845;-55
2023/12/16 03:51:48;;;;;;;;;1.00;0.50;;;;;7.69;83.80;102088.75;5098397;28;8848;-57
2023/12/16 03:54:16;;;;;;;;;5.00;3.00;;;;;7.69;84.10;102090.56;5098824;28;8903;-58
2023/12/16 03:56:43;;;;;;;;;4.25;4.25;;;;;7.67;83.72;102086.22;5098557;28;8830;-56
2023/12/16 03:59:11;;;;;;;;;5.00;5.00;;;;;7.67;83.66;102091.53;5097770;28;8802;-55
2023/12/16 04:01:39;;;;;;;;;1.50;1.00;;;;;7.68;83.45;102096.78;5098794;28;8818;-58
2023/12/16 04:04:07;;;;;;;;;7.00;3.25;;;;;7.67;83.59;102103.00;5098363;28;8830;-57
2023/12/16 04:06:35;;;;;;;;;3.25;1.50;;;;;7.67;84.01;102099.47;5098637;28;8831;-57
2023/12/16 04:09:03;;;;;;;;;4.50;3.25;;;;;7.67;83.82;102102.13;5098585;28;8814;-56
2023/12/16 04:11:31;;;;;;;;;5.50;5.50;;;;;7.68;83.49;102095.91;5098340;28;8889;-58
2023/12/16 04:13:59;;;;;;;;;1.00;1.00;;;;;7.68;83.54;102103.84;5098293;28;8968;-56
2023/12/16 04:16:26;;;;;;;;;1.00;0.75;;;;;7.68;83.27;102101.22;5098605;28;8833;-56
2023/12/16 04:18:54;;;;;;;;;3.75;3.00;;;;;7.68;83.38;102101.22;5098261;28;8886;-57
2023/12/16 04:21:22;;;;;;;;;1.50;1.50;;;;;7.67;83.78;102099.47;5098408;28;8826;-57
2023/12/16 04:23:50;;;;;;;;;4.50;4.00;;;;;7.68;83.78;102103.84;5098322;28;8957;-55
2023/12/16 04:26:17;;;;;;;;;3.00;3.00;;;;;7.67;83.42;102097.72;5097836;28;8813;-58
2023/12/16 04:28:45;;;;;;;;;3.00;3.00;;;;;7.67;83.67;102094.19;5097016;28;8818;-57
2023/12/16 04:31:13;;;;;;;;;1.00;1.00;;;;;7.67;83.12;102100.38;5097641;28;8856;-57
2023/12/16 04:33:41;;;;;;;;;3.75;3.75;;;;;7.67;83.60;102094.19;5097788;28;8825;-58
2023/12/16 04:36:09;;;;;;;;;3.75;3.00;;;;;7.68;83.91;102094.13;5098204;28;8830;-57
2023/12/16 04:38:36;;;;;;;;;1.50;1.50;;;;;7.68;83.40;102092.34;5097932;28;8810;-58
2023/12/16 04:41:04;;;;;;;;;4.00;3.50;;;;;7.68;83.37;102072.03;5097888;28;8846;-58
2023/12/16 04:43:32;;;;;;;;;1.00;1.00;;;;;7.68;82.98;102090.59;5097633;28;8842;-57
2023/12/16 04:45:59;;;;;;;;;4.50;3.50;;;;;7.68;82.47;102081.72;5097205;28;8834;-57
2023/12/16 04:48:27;;;;;;;;;1.00;0.00;;;;;7.67;83.03;102089.75;5096844;28;8838;-55
2023/12/16 04:50:55;;;;;;;;;3.00;1.00;;;;;7.66;82.81;102085.34;5095776;28;8822;-57
2023/12/16 04:53:23;;;;;;;;;3.25;3.00;;;;;7.66;82.84;102085.34;5096200;28;8848;-57
2023/12/16 04:55:51;;;;;;;;;3.00;3.00;;;;;7.66;82.76;102089.78;5096241;28;8980;-58
2023/12/16 04:58:20;;;;;;;;;0.00;0.00;;;;;7.66;83.08;102081.84;5096692;28;8911;-56
2023/12/16 05:00:47;;;;;;;;;3.50;3.50;;;;;7.66;82.39;102081.84;5097167;28;8829;-58
2023/12/16 05:03:15;;;;;;;;;6.75;3.75;;;;;7.65;82.80;102086.25;5096173;28;8837;-57
2023/12/16 05:05:43;;;;;;;;;2.50;2.50;;;;;7.65;82.77;102082.75;5094771;28;8857;-58
2023/12/16 05:08:11;;;;;;;;;3.00;3.00;;;;;7.65;82.84;102088.91;5095050;28;8905;-58
2023/12/16 05:10:38;;;;;;;;;4.00;3.50;;;;;7.64;82.67;102086.34;5094753;28;8826;-56
2023/12/16 05:13:06;;;;;;;;;3.00;3.00;;;;;7.65;82.81;102090.72;5095512;28;8834;-56
2023/12/16 05:15:34;;;;;;;;;2.00;2.00;;;;;7.64;82.56;102086.34;5096335;28;8834;-55
2023/12/16 05:18:02;;;;;;;;;4.00;2.50;;;;;7.62;82.38;102091.69;5096698;28;9518;-55
2023/12/16 05:20:30;;;;;;;;;1.00;1.00;;;;;7.63;82.44;102097.84;5097093;28;8822;-58
2023/12/16 05:22:59;;;;;;;;;3.00;2.00;;;;;7.62;82.34;102107.59;5095757;28;8818;-56
2023/12/16 05:25:27;;;;;;;;;1.00;1.00;;;;;7.64;82.46;102107.56;5096141;28;8830;-55
2023/12/16 05:27:54;;;;;;;;;2.00;1.50;;;;;7.65;82.11;102106.63;5095631;28;9514;-57
2023/12/16 05:30:22;;;;;;;;;1.00;1.00;;;;;7.66;82.60;102113.66;5097005;28;8850;-56
2023/12/16 05:32:50;;;;;;;;;4.00;4.00;;;;;7.65;82.55;102109.28;5096767;28;9542;-56
2023/12/16 05:35:18;;;;;;;;;2.00;2.00;;;;;7.64;82.14;102118.16;5096820;28;8810;-56
2023/12/16 05:37:46;;;;;;;;;3.00;3.00;;;;;7.62;82.34;102120.84;5096322;28;8848;-57
2023/12/16 05:40:14;;;;;;;;;1.50;1.50;;;;;7.60;82.51;102112.09;5096231;28;8818;-57
2023/12/16 05:42:42;;;;;;;;;3.00;3.00;;;;;7.61;82.49;102116.47;5096989;28;8854;-56
2023/12/16 05:45:09;;;;;;;;;3.00;3.00;;;;;7.62;82.54;102126.16;5096830;28;8822;-57
2023/12/16 05:47:37;;;;;;;;;1.50;1.50;;;;;7.64;82.41;102119.00;5096638;28;8838;-58
2023/12/16 05:50:05;;;;;;;;;1.00;1.00;;;;;7.65;82.61;102118.09;5096581;28;8810;-56
2023/12/16 05:52:33;;;;;;;;;3.00;2.50;;;;;7.68;82.63;102117.13;5096590;28;8834;-58
2023/12/16 05:55:01;;;;;;;;;1.00;1.00;;;;;7.68;82.40;102110.91;5095210;28;8830;-56
2023/12/16 05:57:29;;;;;;;;;5.50;3.00;;;;;7.69;82.04;102109.13;5095479;28;8822;-58
2023/12/16 05:59:57;;;;;;;;;1.00;1.00;;;;;7.69;82.00;102107.31;5096428;28;8827;-56
2023/12/16 06:02:25;;;;;;;;;3.50;3.50;;;;;7.70;82.00;102111.69;5121862;28;8812;-58
2023/12/16 06:04:53;;;;;;;;;3.00;3.00;;;;;7.70;82.22;102101.09;5111872;28;8818;-57
2023/12/16 06:07:21;;;;;;;;;6.00;5.00;;;;;7.71;81.96;102104.63;5097944;28;8831;-58
2023/12/16 06:09:50;;;;;;;;;4.00;4.00;;;;;7.72;81.73;102096.63;5095199;28;9456;-58
2023/12/16 06:12:17;;;;;;;;;3.00;3.00;;;;;7.73;81.76;102090.41;5094246;28;8858;-58
2023/12/16 06:14:46;;;;;;;;;3.50;3.50;;;;;7.74;81.96;102101.84;5095298;28;9511;-58
2023/12/16 06:17:14;;;;;;;;;1.50;1.00;;;;;7.76;81.57;102092.09;5095378;28;8841;-58
2023/12/16 06:19:42;;;;;;;;;3.00;3.00;;;;;7.77;81.77;102101.78;5094678;28;8826;-56
2023/12/16 06:22:09;;;;;;;;;1.00;1.00;;;;;7.79;81.62;102100.81;5095264;28;8818;-58
2023/12/16 06:24:37;;;;;;;;;3.50;3.50;;;;;7.79;81.73;102094.63;5095115;28;8826;-55
2023/12/16 06:27:05;;;;;;;;;1.00;1.00;;;;;7.80;81.10;102091.94;5095576;28;8822;-58
2023/12/16 06:29:33;;;;;;;;;3.00;3.00;;;;;7.82;81.24;102095.41;5095491;28;9553;-57
2023/12/16 06:32:00;;;;;;;;;2.00;2.00;;;;;7.81;81.38;102093.66;5095277;28;9545;-57
2023/12/16 06:34:28;;;;;;;;;3.25;3.00;;;;;7.83;81.12;102101.56;5095120;28;8956;-55
2023/12/16 06:36:56;;;;;;;;;3.00;1.00;;;;;7.82;81.67;102100.69;5095945;28;9570;-56
2023/12/16 06:39:24;;;;;;;;;3.00;3.00;;;;;7.81;81.26;102096.31;5095683;28;9503;-57
2023/12/16 06:41:51;;;;;;;;;4.75;4.00;;;;;7.81;81.55;102104.28;5094886;28;8846;-57
2023/12/16 06:44:19;;;;;;;;;3.25;3.00;;;;;7.80;81.26;102102.53;5095311;28;8832;-56
2023/12/16 06:46:47;;;;;;;;;2.00;2.00;;;;;7.80;81.34;102102.53;5095621;28;8893;-57
2023/12/16 06:49:14;;;;;;;;;1.50;1.50;;;;;7.79;81.39;102111.41;5095750;28;8968;-56
2023/12/16 06:51:42;;;;;;;;;3.50;3.00;;;;;7.82;81.20;102115.72;5095604;28;8822;-56
2023/12/16 06:54:12;;;;;;;;;5.00;4.50;;;;;7.81;81.40;102109.56;5095479;28;8976;-57
2023/12/16 06:56:40;;;;;;;;;3.00;2.00;;;;;7.81;81.28;102112.22;5094315;28;8830;-57
2023/12/16 06:59:08;;;;;;;;;3.00;3.00;;;;;7.81;80.70;102104.28;5094271;28;8836;-55
2023/12/16 07:01:35;;;;;;;;;0.50;0.00;;;;;7.84;81.30;102119.22;5094805;28;8817;-58
2023/12/16 07:04:03;;;;;;;;;3.50;3.00;;;;;7.84;80.99;102113.91;5094993;28;8822;-56
2023/12/16 07:06:31;;;;;;;;;3.50;3.25;;;;;7.83;81.12;102123.63;5095050;28;8822;-57
2023/12/16 07:08:59;;;;;;;;;3.00;1.00;;;;;7.83;81.01;102121.00;5093924;28;8837;-56
2023/12/16 07:11:27;;;;;;;;;4.00;3.00;;;;;7.83;80.58;102128.94;5094813;28;8846;-57
2023/12/16 07:13:55;;;;;;;;;3.00;2.50;;;;;7.83;80.85;102139.56;5094542;28;9527;-58
2023/12/16 07:16:23;;;;;;;;;1.00;0.50;;;;;7.84;81.06;102140.44;5098454;28;8821;-57
2023/12/16 07:18:50;;;;;;;;;0.25;0.25;;;;;7.85;81.08;102142.16;5097211;28;8926;-58
2023/12/16 07:21:18;;;;;;;;;2.50;1.00;;;;;7.86;80.99;102143.91;5097431;28;8830;-57
2023/12/16 07:23:46;;;;;;;;;2.00;2.00;;;;;7.86;80.81;102139.47;5097898;28;8830;-56
2023/12/16 07:26:14;;;;;;;;;1.50;1.00;;;;;7.84;81.12;102146.59;5097884;28;8826;-57
2023/12/16 07:28:42;;;;;;;;;3.00;3.00;;;;;7.85;80.71;102135.06;5097288;28;8820;-58
2023/12/16 07:31:10;;;;;;;;;1.50;1.00;;;;;7.87;80.86;102141.19;5096991;28;8814;-57
2023/12/16 07:33:38;;;;;;;;;3.25;2.00;;;;;7.87;80.82;102133.25;5098427;28;8861;-57
2023/12/16 07:36:06;;;;;;;;;1.00;1.00;;;;;7.90;80.84;102146.38;5098597;28;8814;-57
2023/12/16 07:38:33;;;;;;;;;3.00;2.00;;;;;7.91;81.02;102142.81;5098958;28;9531;-56
2023/12/16 07:41:01;;;;;;;;;1.00;1.00;;;;;7.94;80.69;102147.16;5098706;28;8819;-55
2023/12/16 07:43:29;;;;;;;;;0.00;0.00;;;;;7.94;80.61;102137.44;5098730;28;8944;-57
2023/12/16 07:45:57;;;;;;;;;3.00;2.00;;;;;7.95;80.88;102136.50;5098778;28;8833;-57
2023/12/16 07:48:24;;;;;;;;;2.00;1.00;;;;;7.97;80.41;102139.09;5098732;28;8903;-58
2023/12/16 07:50:53;;;;;;;;;4.50;3.25;;;;;7.97;80.57;102149.69;5098540;28;8886;-55
2023/12/16 07:53:22;;;;;;;;;1.00;1.00;;;;;7.98;80.46;102147.00;5098606;28;8868;-57
2023/12/16 07:55:50;;;;;;;;;3.00;2.50;;;;;8.01;80.53;102148.69;5098406;28;8825;-56
2023/12/16 07:58:18;;;;;;;;;0.00;0.00;;;;;8.02;80.61;102150.41;5097382;28;9016;-55
2023/12/16 08:00:46;;;;;;;;;3.75;3.75;;;;;8.03;80.53;102147.72;5098388;28;8825;-57
2023/12/16 08:03:13;;;;;;;;;2.00;2.00;;;;;8.05;80.83;102156.50;5098547;28;8960;-57
2023/12/16 08:05:41;;;;;;;;;1.00;1.00;;;;;8.06;80.45;102163.53;5098043;28;9398;-57
2023/12/16 08:08:09;;;;;;;;;3.50;2.75;;;;;8.07;80.34;102165.25;5097991;28;8915;-57
2023/12/16 08:10:37;;;;;;;;;3.00;3.00;;;;;8.09;80.93;102173.16;5097931;28;8911;-58
2023/12/16 08:13:05;;;;;;;;;1.50;1.00;;;;;8.10;80.40;102173.13;5097508;28;8865;-56
2023/12/16 08:15:33;;;;;;;;;3.50;2.50;;;;;8.13;80.35;102175.66;5097021;28;8814;-57
2023/12/16 08:18:00;;;;;;;;;2.50;2.50;;;;;8.15;80.23;102172.97;5095814;28;8817;-56
2023/12/16 08:20:28;;;;;;;;;3.00;3.00;;;;;8.16;80.70;102172.94;5093211;28;8810;-58
2023/12/16 08:22:56;;;;;;;;;4.00;3.75;;;;;8.15;80.13;102163.19;5095800;28;8829;-55
2023/12/16 08:25:24;;;;;;;;;3.75;3.75;;;;;8.15;80.15;102167.66;5094972;28;8830;-58
2023/12/16 08:27:52;;;;;;;;;1.00;1.00;;;;;8.14;80.20;102160.63;5095844;28;8833;-55
2023/12/16 08:30:20;;;;;;;;;4.00;3.25;;;;;8.13;80.06;102166.84;5096605;28;8825;-55
2023/12/16 08:32:48;;;;;;;;;0.50;0.25;;;;;8.09;79.94;102166.09;5096166;28;8861;-56
2023/12/16 08:35:16;;;;;;;;;3.50;3.50;;;;;8.06;80.01;102168.81;5096640;28;8858;-55
2023/12/16 08:37:44;;;;;;;;;2.00;2.00;;;;;8.06;79.72;102173.28;5096599;28;8890;-56
2023/12/16 08:40:12;;;;;;;;;3.00;3.00;;;;;8.03;79.95;102174.25;5097063;28;8841;-57
2023/12/16 08:42:42;;;;;;;;;4.00;3.50;;;;;8.04;79.92;102175.09;5096808;28;8822;-58
2023/12/16 08:45:10;;;;;;;;;1.00;1.00;;;;;8.01;80.01;102178.75;5096362;28;8821;-57
2023/12/16 08:47:38;;;;;;;;;2.50;1.00;;;;;8.00;79.91;102178.78;5096707;28;8833;-57
2023/12/16 08:50:06;;;;;;;;;1.00;0.25;;;;;7.96;80.42;102178.03;5097114;28;8845;-56
2023/12/16 08:52:34;;;;;;;;;1.50;0.50;;;;;7.94;80.35;102187.81;5097031;28;8927;-58
2023/12/16 08:55:02;;;;;;;;;0.00;0.00;;;;;7.91;80.34;102179.94;5096641;28;8814;-58
2023/12/16 08:57:31;;;;;;;;;4.00;4.00;;;;;7.91;79.92;102189.72;5096973;28;8834;-57
2023/12/16 08:59:58;;;;;;;;;3.00;3.00;;;;;7.90;80.39;102188.84;5074926;28;8882;-57
2023/12/16 09:02:27;;;;;;;;;1.00;1.00;;;;;7.91;80.42;102195.88;5075627;28;8913;-57
2023/12/16 09:04:55;;;;;;;;;1.00;1.00;;;;;7.95;80.29;102196.63;5082859;28;9966;-55
2023/12/16 09:07:23;;;;;;;;;2.50;2.50;;;;;7.96;80.24;102196.59;5095768;28;9741;-55
2023/12/16 09:09:51;;;;;;;;;3.00;3.00;;;;;8.00;80.18;102200.88;5094308;28;8861;-56
2023/12/16 09:12:18;;;;;;;;;3.00;2.00;;;;;8.06;80.11;102210.44;5095226;28;8846;-57
2023/12/16 09:14:47;;;;;;;;;4.00;4.00;;;;;8.14;80.16;102217.19;5093897;28;8842;-56
2023/12/16 09:17:15;;;;;;;;;3.00;3.00;;;;;8.24;79.58;102215.16;5095811;28;8838;-57
2023/12/16 09:19:43;;;;;;;;;3.00;3.00;;;;;8.34;79.93;102217.44;5095887;28;8915;-55
2023/12/16 09:22:11;;;;;;;;;0.50;0.50;;;;;8.43;79.10;102216.28;5095775;28;8845;-56
2023/12/16 09:24:39;;;;;;;;;3.50;1.50;;;;;8.53;78.83;102212.38;5096107;28;8856;-57
2023/12/16 09:27:07;;;;;;;;;1.00;1.00;;;;;8.64;78.97;102212.84;5096454;28;8837;-56
2023/12/16 09:29:35;;;;;;;;;2.50;2.50;;;;;8.78;78.69;102224.72;5095870;28;8969;-57
2023/12/16 09:32:03;;;;;;;;;3.00;3.00;;;;;8.92;78.49;102217.13;5095968;28;8858;-57
2023/12/16 09:34:30;;;;;;;;;1.00;1.00;;;;;9.03;78.04;102219.41;5095171;28;8841;-58
2023/12/16 09:36:58;;;;;;;;;2.00;1.75;;;;;9.12;78.10;102213.72;5094287;28;8822;-57
2023/12/16 09:39:27;;;;;;;;;3.00;1.00;;;;;9.16;77.91;102215.34;5094859;28;9961;-56
2023/12/16 09:41:54;;;;;;;;;3.50;3.00;;;;;9.22;78.08;102215.09;5094435;28;8852;-58
2023/12/16 09:44:22;;;;;;;;;3.75;3.75;;;;;9.31;77.86;102214.75;5094105;28;8899;-58
2023/12/16 09:46:50;;;;;;;;;4.00;3.00;;;;;9.33;77.11;102220.91;5094109;28;8910;-58
2023/12/16 09:49:18;;;;;;;;;3.50;3.50;;;;;9.33;77.87;102219.09;5094645;28;9526;-56
2023/12/16 09:51:46;;;;;;;;;1.00;1.00;;;;;9.36;77.39;102205.69;5094188;28;8849;-58
2023/12/16 09:54:16;;;;;;;;;1.50;1.00;;;;;9.36;77.62;102213.69;5094806;28;8830;-58
2023/12/16 09:56:44;;;;;;;;;3.00;3.00;;;;;9.36;77.91;102210.13;5095446;28;9507;-56
2023/12/16 09:59:12;;;;;;;;;3.00;2.00;;;;;9.40;77.57;102217.06;5094700;28;8830;-57
2023/12/16 10:01:40;;;;;;;;;0.00;0.00;;;;;9.43;77.52;102212.47;5095948;28;8825;-57
2023/12/16 10:04:08;;;;;;;;;0.00;0.00;;;;;9.47;77.28;102210.56;5095713;28;8830;-57
2023/12/16 10:06:36;;;;;;;;;0.50;0.50;;;;;9.51;76.95;102202.44;5095562;28;8842;-55
2023/12/16 10:09:04;;;;;;;;;2.00;2.00;;;;;9.54;77.46;102209.41;5094954;28;8834;-57
2023/12/16 10:11:32;;;;;;;;;1.50;1.50;;;;;9.58;77.30;102208.38;5095333;28;8865;-57
2023/12/16 10:14:00;;;;;;;;;1.50;1.50;;;;;9.60;76.65;102202.06;5093906;28;8841;-58
2023/12/16 10:16:29;;;;;;;;;1.00;0.00;;;;;9.62;76.68;102189.56;5093744;28;8869;-58
2023/12/16 10:18:57;;;;;;;;;3.00;2.00;;;;;9.66;77.02;102201.81;5094149;28;8822;-58
2023/12/16 10:21:25;;;;;;;;;3.25;3.00;;;;;9.81;76.15;102195.03;5094878;28;9530;-58
2023/12/16 10:23:54;;;;;;;;;3.25;3.00;;;;;10.02;75.96;102189.69;5094750;28;8830;-58
2023/12/16 10:26:22;;;;;;;;;1.00;1.00;;;;;10.20;75.60;102188.09;5094821;28;8836;-57
2023/12/16 10:31:57;;;;;;;;;3.25;2.75;;;;;10.43;75.31;102186.19;5094052;28;8871;-56
2023/12/16 10:34:25;;;;;;;;;0.25;0.25;;;;;10.51;74.98;102189.38;5093842;28;8866;-57
2023/12/16 10:36:54;;;;;;;;;1.00;1.00;;;;;10.75;75.52;102195.41;5094096;28;8850;-56
2023/12/16 10:39:22;;;;;;;;;1.00;1.00;;;;;10.98;74.45;102181.91;5093707;28;8841;-59
2023/12/16 10:41:50;;;;;;;;;1.00;1.00;;;;;11.02;74.43;102179.06;5094048;28;8853;-56
2023/12/16 10:44:18;;;;;;;;;0.00;0.00;;;;;11.00;74.38;102175.59;5093812;28;8830;-58
2023/12/16 10:46:46;;;;;;;;;0.50;0.50;;;;;10.99;74.92;102171.19;5092685;28;8806;-58
2023/12/16 10:49:13;;;;;;;;;1.00;1.00;;;;;11.01;74.99;102174.66;5096424;28;8830;-57
2023/12/16 10:51:41;;;;;;;;;3.00;3.00;;;;;10.98;75.08;102174.78;5097624;28;8834;-58
2023/12/16 10:54:09;;;;;;;;;3.50;1.00;;;;;10.94;74.87;102159.88;5097272;28;8842;-56
2023/12/16 10:56:37;;;;;;;;;1.50;0.50;;;;;10.87;75.03;102147.78;5098546;28;8920;-58
2023/12/16 10:59:07;;;;;;;;;1.00;0.75;;;;;10.82;75.38;102152.44;5097666;28;8813;-56
2023/12/16 11:01:35;;;;;;;;;1.00;1.00;;;;;10.77;75.33;102154.44;5098527;28;8927;-57
2023/12/16 11:04:03;;;;;;;;;0.25;0.25;;;;;10.70;75.33;102147.66;5098225;28;8825;-56
2023/12/16 11:06:31;;;;;;;;;0.00;0.00;;;;;10.67;75.50;102153.13;5098684;28;9536;-56
2023/12/16 11:09:00;;;;;;;;;1.00;1.00;;;;;10.63;75.66;102159.53;5098302;28;8968;-57
2023/12/16 11:11:28;;;;;;;;;0.25;0.25;;;;;10.59;76.07;102146.41;5098487;28;8930;-57
2023/12/16 11:13:57;;;;;;;;;1.00;0.75;;;;;10.54;75.74;102148.44;5098775;28;8814;-57
2023/12/16 11:16:24;;;;;;;;;1.00;1.00;;;;;10.49;75.92;102140.66;5098308;28;8830;-59
2023/12/16 11:18:52;;;;;;;;;0.75;0.75;;;;;10.45;75.93;102147.03;5098270;28;8834;-58
2023/12/16 11:21:22;;;;;;;;;1.50;1.00;;;;;10.40;76.18;102134.84;5098380;28;8822;-57
2023/12/16 11:23:50;;;;;;;;;0.00;0.00;;;;;10.36;76.31;102136.78;5097780;28;8830;-57
2023/12/16 11:26:18;;;;;;;;;1.00;1.00;;;;;10.35;76.33;102123.53;5098665;28;8853;-57
2023/12/16 11:28:47;;;;;;;;;0.00;0.00;;;;;10.34;76.30;102111.13;5098192;28;9499;-57
2023/12/16 11:31:15;;;;;;;;;2.50;2.50;;;;;10.33;76.43;102115.59;5094944;28;9808;-57
2023/12/16 11:33:43;;;;;;;;;3.25;3.25;;;;;10.34;76.78;102105.81;5096359;28;8968;-56
2023/12/16 11:36:12;;;;;;;;;0.50;0.50;;;;;10.34;76.15;102101.38;5098468;28;8830;-58
2023/12/16 11:38:39;;;;;;;;;0.00;0.00;;;;;10.40;76.57;102098.41;5098477;28;8840;-58
2023/12/16 11:41:07;;;;;;;;;0.00;0.00;;;;;10.44;75.98;102108.00;5097937;28;9527;-56
2023/12/16 11:43:35;;;;;;;;;2.50;2.50;;;;;10.46;75.88;102100.81;5097834;28;9697;-58
2023/12/16 11:46:03;;;;;;;;;1.00;0.50;;;;;10.50;75.82;102107.75;5097696;28;9783;-58
2023/12/16 11:48:31;;;;;;;;;1.50;1.50;;;;;10.52;76.27;102099.66;5097076;28;8847;-58